createdAt,value
2022-12-31T00:02:50.596Z,4.98
2022-12-31T00:05:53.222Z,4.91
2022-12-31T00:08:59.117Z,5.02
2022-12-31T00:12:01.775Z,4.89
2022-12-31T00:15:04.468Z,5.09
2022-12-31T00:18:07.634Z,4.71
2022-12-31T00:21:10.695Z,4.85
2022-12-31T00:24:13.152Z,4.73
2022-12-31T00:27:15.550Z,4.56
2022-12-31T00:30:18.076Z,4.62
2022-12-31T00:33:20.426Z,4.55
2022-12-31T00:36:29.127Z,4.33
2022-12-31T00:39:31.614Z,4.52
2022-12-31T00:42:33.934Z,4.55
2022-12-31T00:45:36.330Z,4.55
2022-12-31T00:48:39.176Z,4.46
2022-12-31T00:51:41.649Z,4.51
2022-12-31T00:54:44.316Z,4.54
2022-12-31T00:57:46.694Z,4.38
2022-12-31T01:00:49.120Z,4.21
2022-12-31T01:03:55.184Z,4.47
2022-12-31T01:06:57.555Z,4.23
2022-12-31T01:09:59.975Z,4.29
2022-12-31T01:13:02.468Z,4.32
2022-12-31T01:16:12.740Z,4.40
2022-12-31T01:19:18.432Z,4.41
2022-12-31T01:22:20.824Z,4.33
2022-12-31T01:25:23.241Z,4.28
2022-12-31T01:28:25.757Z,4.29
2022-12-31T01:31:28.756Z,4.36
2022-12-31T01:34:31.141Z,4.45
2022-12-31T01:37:33.514Z,4.22
2022-12-31T01:40:40.394Z,4.13
2022-12-31T01:43:44.439Z,4.20
2022-12-31T01:46:49.584Z,4.09
2022-12-31T01:50:02.302Z,4.29
2022-12-31T01:53:06.898Z,4.27
2022-12-31T01:56:09.812Z,4.32
2022-12-31T01:59:14.639Z,4.40
2022-12-31T02:02:17.290Z,4.40
2022-12-31T02:05:25.302Z,4.30
2022-12-31T02:08:27.751Z,4.27
2022-12-31T02:11:36.578Z,4.39
2022-12-31T02:14:45.753Z,4.26
2022-12-31T02:18:22.772Z,4.60
2022-12-31T02:21:43.468Z,4.33
2022-12-31T02:24:48.553Z,4.48
2022-12-31T02:28:23.295Z,4.43
2022-12-31T02:31:37.175Z,4.55
2022-12-31T02:34:48.904Z,4.42
2022-12-31T02:37:56.987Z,4.32
2022-12-31T02:41:00.341Z,4.45
2022-12-31T02:44:19.666Z,4.42
2022-12-31T02:47:27.942Z,4.52
2022-12-31T02:50:55.555Z,4.28
2022-12-31T02:54:36.802Z,4.45
2022-12-31T02:57:47.401Z,4.28
2022-12-31T03:01:13.387Z,4.35
2022-12-31T03:04:32.142Z,4.29
2022-12-31T03:07:35.021Z,4.48
2022-12-31T03:10:37.734Z,4.47
2022-12-31T03:13:40.062Z,4.41
2022-12-31T03:16:42.417Z,4.32
2022-12-31T03:20:03.116Z,4.46
2022-12-31T03:23:08.788Z,4.30
2022-12-31T03:26:12.672Z,4.10
2022-12-31T03:29:15.095Z,4.34
2022-12-31T03:32:17.458Z,4.39
2022-12-31T03:35:21.694Z,4.35
2022-12-31T03:38:24.759Z,4.27
2022-12-31T03:41:27.513Z,4.45
2022-12-31T03:44:29.917Z,4.50
2022-12-31T03:47:32.624Z,4.39
2022-12-31T03:50:37.610Z,4.28
2022-12-31T03:53:39.957Z,4.33
2022-12-31T03:56:42.786Z,4.22
2022-12-31T03:59:45.119Z,4.29
2022-12-31T04:02:48.458Z,4.28
2022-12-31T04:05:55.330Z,4.47
2022-12-31T04:08:57.753Z,4.36
2022-12-31T04:12:00.201Z,4.50
2022-12-31T04:15:05.790Z,4.44
2022-12-31T04:18:08.250Z,4.50
2022-12-31T04:21:10.935Z,4.33
2022-12-31T04:24:13.441Z,4.46
2022-12-31T04:27:15.811Z,4.29
2022-12-31T04:30:18.307Z,4.45
2022-12-31T04:33:20.629Z,4.38
2022-12-31T04:36:22.976Z,4.48
2022-12-31T04:39:26.180Z,4.37
2022-12-31T04:42:28.582Z,4.54
2022-12-31T04:45:31.139Z,4.34
2022-12-31T04:48:34.916Z,4.46
2022-12-31T04:51:37.732Z,4.41
2022-12-31T04:54:40.135Z,4.42
2022-12-31T04:57:42.483Z,4.47
2022-12-31T05:00:46.198Z,4.53
2022-12-31T05:03:49.346Z,4.46
2022-12-31T05:06:51.777Z,4.49
2022-12-31T05:09:54.421Z,4.43
2022-12-31T05:12:56.733Z,4.22
2022-12-31T05:15:59.059Z,4.14
2022-12-31T05:19:01.459Z,4.30
2022-12-31T05:22:22.087Z,4.24
2022-12-31T05:25:24.581Z,4.20
2022-12-31T05:28:27.012Z,4.26
2022-12-31T05:31:29.510Z,4.44
2022-12-31T05:34:31.867Z,4.63
2022-12-31T05:37:34.439Z,4.44
2022-12-31T05:40:36.777Z,4.28
2022-12-31T05:43:39.146Z,4.47
2022-12-31T05:46:41.508Z,4.34
2022-12-31T05:49:44.061Z,4.47
2022-12-31T05:52:47.726Z,4.24
2022-12-31T05:55:50.300Z,4.43
2022-12-31T05:58:52.628Z,4.29
2022-12-31T06:01:55.299Z,4.21
2022-12-31T06:04:57.674Z,4.17
2022-12-31T06:08:00.142Z,4.35
2022-12-31T06:11:02.609Z,4.40
2022-12-31T06:14:05.535Z,4.41
2022-12-31T06:17:07.944Z,4.43
2022-12-31T06:20:13.152Z,4.65
2022-12-31T06:23:15.902Z,4.49
2022-12-31T06:26:18.333Z,4.25
2022-12-31T06:29:20.961Z,4.10
2022-12-31T06:32:23.341Z,4.20
2022-12-31T06:35:25.772Z,4.24
2022-12-31T06:38:30.237Z,4.54
2022-12-31T06:41:32.969Z,4.30
2022-12-31T06:44:35.321Z,4.25
2022-12-31T06:47:37.765Z,4.50
2022-12-31T06:50:40.417Z,4.18
2022-12-31T06:53:43.201Z,4.25
2022-12-31T06:56:45.809Z,4.28
2022-12-31T06:59:48.397Z,4.36
2022-12-31T07:03:16.984Z,4.47
2022-12-31T07:06:37.652Z,4.43
2022-12-31T07:09:53.762Z,4.56
2022-12-31T07:13:07.016Z,4.55
2022-12-31T07:16:27.977Z,4.58
2022-12-31T07:19:57.653Z,4.63
2022-12-31T07:23:00.585Z,4.67
2022-12-31T07:26:11.286Z,4.70
2022-12-31T07:29:37.949Z,4.57
2022-12-31T07:33:24.493Z,4.51
2022-12-31T07:36:55.520Z,4.52
2022-12-31T07:40:24.013Z,4.58
2022-12-31T07:43:56.282Z,4.67
2022-12-31T07:47:03.556Z,4.73
2022-12-31T07:50:06.912Z,4.60
2022-12-31T07:53:10.427Z,4.57
2022-12-31T07:56:13.580Z,4.69
2022-12-31T07:59:46.806Z,4.73
2022-12-31T08:03:19.141Z,4.72
2022-12-31T08:06:36.863Z,5.26
2022-12-31T08:10:12.571Z,5.13
2022-12-31T08:13:18.488Z,5.24
2022-12-31T08:16:21.807Z,5.03
2022-12-31T08:19:30.696Z,4.81
2022-12-31T08:22:59.058Z,5.22
2022-12-31T08:26:36.526Z,5.31
2022-12-31T08:30:00.433Z,5.28
2022-12-31T08:33:14.295Z,5.06
2022-12-31T08:36:23.337Z,5.34
2022-12-31T08:39:51.165Z,5.47
2022-12-31T08:43:30.453Z,5.53
2022-12-31T08:47:03.581Z,5.69
2022-12-31T08:50:07.256Z,5.72
2022-12-31T08:53:10.129Z,6.03
2022-12-31T08:56:34.579Z,5.73
2022-12-31T08:59:47.898Z,5.87
2022-12-31T09:02:50.373Z,5.95
2022-12-31T09:05:58.843Z,5.68
2022-12-31T09:09:27.288Z,5.83
2022-12-31T09:12:32.777Z,5.73
2022-12-31T09:15:47.586Z,5.45
2022-12-31T09:18:50.005Z,5.56
2022-12-31T09:21:52.919Z,5.71
2022-12-31T09:24:55.549Z,5.68
2022-12-31T09:28:09.454Z,5.73
2022-12-31T09:31:18.452Z,5.79
2022-12-31T09:34:40.379Z,5.73
2022-12-31T09:37:49.368Z,5.49
2022-12-31T09:41:14.971Z,5.49
2022-12-31T09:44:35.616Z,5.35
2022-12-31T09:47:43.805Z,5.53
2022-12-31T09:51:30.007Z,5.74
2022-12-31T09:54:54.059Z,5.48
2022-12-31T09:58:07.217Z,5.35
2022-12-31T10:01:34.965Z,5.22
2022-12-31T10:04:58.338Z,5.58
2022-12-31T10:08:45.183Z,5.55
2022-12-31T10:12:02.645Z,5.70
2022-12-31T10:15:23.457Z,5.62
2022-12-31T10:19:12.188Z,5.74
2022-12-31T10:22:41.007Z,5.50
2022-12-31T10:26:01.289Z,5.83
2022-12-31T10:29:24.952Z,5.33
2022-12-31T10:32:43.489Z,5.72
2022-12-31T10:36:21.719Z,5.68
2022-12-31T10:39:50.465Z,5.48
2022-12-31T10:43:01.973Z,5.40
2022-12-31T10:46:33.383Z,5.46
2022-12-31T10:49:44.889Z,5.38
2022-12-31T10:53:11.598Z,5.52
2022-12-31T10:56:13.903Z,5.63
2022-12-31T10:59:57.313Z,5.66
2022-12-31T11:03:47.621Z,5.76
2022-12-31T11:07:23.702Z,5.61
2022-12-31T11:10:32.730Z,5.62
2022-12-31T11:14:12.711Z,5.77
2022-12-31T11:17:41.179Z,5.61
2022-12-31T11:21:09.006Z,5.26
2022-12-31T11:24:33.294Z,5.30
2022-12-31T11:27:59.743Z,5.53
2022-12-31T11:31:39.660Z,5.34
2022-12-31T11:35:07.556Z,5.38
2022-12-31T11:38:38.703Z,5.33
2022-12-31T11:41:54.348Z,5.25
2022-12-31T11:45:37.666Z,5.10
2022-12-31T11:49:02.790Z,5.02
2022-12-31T11:52:49.697Z,5.16
2022-12-31T11:56:46.193Z,5.43
2022-12-31T11:59:49.950Z,5.37
2022-12-31T12:02:59.740Z,4.93
2022-12-31T12:06:02.147Z,5.01
2022-12-31T12:09:14.416Z,5.20
2022-12-31T12:12:17.134Z,5.44
2022-12-31T12:15:35.465Z,5.46
2022-12-31T12:18:47.455Z,5.02
2022-12-31T12:21:51.030Z,4.93
2022-12-31T12:25:16.009Z,5.23
2022-12-31T12:28:18.744Z,5.41
2022-12-31T12:31:23.527Z,5.33
2022-12-31T12:34:37.843Z,5.20
2022-12-31T12:37:40.178Z,5.17
2022-12-31T12:40:59.674Z,5.20
2022-12-31T12:44:07.786Z,5.35
2022-12-31T12:47:16.143Z,5.14
2022-12-31T12:50:25.869Z,5.22
2022-12-31T12:53:55.848Z,5.41
2022-12-31T12:57:28.701Z,5.23
2022-12-31T13:00:57.230Z,5.01
2022-12-31T13:04:34.066Z,5.09
2022-12-31T13:07:43.036Z,5.09
2022-12-31T13:11:15.432Z,5.34
2022-12-31T13:14:41.636Z,5.35
2022-12-31T13:17:47.081Z,5.34
2022-12-31T13:21:49.469Z,5.44
2022-12-31T13:25:00.456Z,5.24
2022-12-31T13:28:06.381Z,5.43
2022-12-31T13:31:20.119Z,5.17
2022-12-31T13:34:28.810Z,5.33
2022-12-31T13:37:39.603Z,5.22
2022-12-31T13:41:25.374Z,5.31
2022-12-31T13:44:42.341Z,5.24
2022-12-31T13:47:50.769Z,5.25
2022-12-31T13:51:02.068Z,5.30
2022-12-31T13:54:10.129Z,5.57
2022-12-31T13:57:26.035Z,5.53
2022-12-31T14:00:53.865Z,5.50
2022-12-31T14:04:07.428Z,5.67
2022-12-31T14:07:22.089Z,5.72
2022-12-31T14:10:31.764Z,5.53
2022-12-31T14:13:45.530Z,5.35
2022-12-31T14:16:59.712Z,5.48
2022-12-31T14:20:23.657Z,5.49
2022-12-31T14:23:58.233Z,5.59
2022-12-31T14:27:05.503Z,5.38
2022-12-31T14:30:31.079Z,5.53
2022-12-31T14:34:15.699Z,5.65
2022-12-31T14:37:36.756Z,5.30
2022-12-31T14:40:54.324Z,5.42
2022-12-31T14:44:05.412Z,5.57
2022-12-31T14:47:09.078Z,5.59
2022-12-31T14:50:23.682Z,5.68
2022-12-31T14:53:28.544Z,5.44
2022-12-31T14:56:33.026Z,5.37
2022-12-31T14:59:40.448Z,5.28
2022-12-31T15:02:49.842Z,5.10
2022-12-31T15:05:56.161Z,5.18
2022-12-31T15:09:23.313Z,5.08
2022-12-31T15:12:44.217Z,5.24
2022-12-31T15:16:10.031Z,5.21
2022-12-31T15:19:18.241Z,5.27
2022-12-31T15:22:43.920Z,5.22
2022-12-31T15:25:49.194Z,4.94
2022-12-31T15:29:03.584Z,5.23
2022-12-31T15:32:16.788Z,5.29
2022-12-31T15:35:21.869Z,5.26
2022-12-31T15:38:34.049Z,5.30
2022-12-31T15:41:46.190Z,5.39
2022-12-31T15:45:02.351Z,5.32
2022-12-31T15:48:50.217Z,5.42
2022-12-31T15:52:04.944Z,5.30
2022-12-31T15:55:08.125Z,5.34
2022-12-31T15:58:20.989Z,5.26
2022-12-31T16:01:28.856Z,5.24
2022-12-31T16:04:39.321Z,5.30
2022-12-31T16:07:42.129Z,5.30
2022-12-31T16:10:44.638Z,5.54
2022-12-31T16:13:51.090Z,5.31
2022-12-31T16:17:02.766Z,5.32
2022-12-31T16:20:26.057Z,5.33
2022-12-31T16:23:28.478Z,5.10
2022-12-31T16:26:50.340Z,5.32
2022-12-31T16:29:59.731Z,5.15
2022-12-31T16:33:05.866Z,5.31
2022-12-31T16:36:19.601Z,5.13
2022-12-31T16:39:33.883Z,5.17
2022-12-31T16:42:44.101Z,5.23
2022-12-31T16:45:46.939Z,5.35
2022-12-31T16:48:55.714Z,5.25
2022-12-31T16:52:28.009Z,5.41
2022-12-31T16:55:32.262Z,5.31
2022-12-31T16:58:40.441Z,5.39
2022-12-31T17:01:43.547Z,5.30
2022-12-31T17:04:56.112Z,5.24
2022-12-31T17:08:19.361Z,5.33
2022-12-31T17:11:28.774Z,5.48
2022-12-31T17:14:31.181Z,5.61
2022-12-31T17:17:38.029Z,5.52
2022-12-31T17:20:40.522Z,5.41
2022-12-31T17:23:49.261Z,5.38
2022-12-31T17:26:52.252Z,5.58
2022-12-31T17:29:54.668Z,5.55
2022-12-31T17:33:13.030Z,5.63
2022-12-31T17:36:22.546Z,5.56
2022-12-31T17:39:26.616Z,5.58
2022-12-31T17:42:39.789Z,5.62
2022-12-31T17:45:44.123Z,5.61
2022-12-31T17:48:51.974Z,5.43
2022-12-31T17:51:54.371Z,5.48
2022-12-31T17:54:56.733Z,5.53
2022-12-31T17:58:04.774Z,5.34
2022-12-31T18:01:08.588Z,4.97
2022-12-31T18:04:15.996Z,4.67
2022-12-31T18:07:18.440Z,4.78
2022-12-31T18:10:24.460Z,4.67
2022-12-31T18:13:27.620Z,5.01
2022-12-31T18:16:30.510Z,4.88
2022-12-31T18:22:55.935Z,4.78
2022-12-31T18:25:58.346Z,4.69
2022-12-31T18:29:13.744Z,4.53
2022-12-31T18:32:27.087Z,4.92
2022-12-31T18:38:52.860Z,4.50
2022-12-31T18:41:55.276Z,4.55
2022-12-31T18:44:57.744Z,4.31
2022-12-31T18:48:00.122Z,4.11
2022-12-31T18:51:02.474Z,4.02
2022-12-31T18:54:05.055Z,4.38
2022-12-31T18:57:07.471Z,4.49
2022-12-31T19:00:11.003Z,4.41
2022-12-31T19:03:21.734Z,4.26
2022-12-31T19:06:24.669Z,4.37
2022-12-31T19:12:50.236Z,4.37
2022-12-31T19:15:53.512Z,4.16
2022-12-31T19:18:55.950Z,4.35
2022-12-31T19:21:58.318Z,4.04
2022-12-31T19:25:00.675Z,4.05
2022-12-31T19:28:04.216Z,3.77
2022-12-31T19:31:06.933Z,4.27
2022-12-31T19:34:09.523Z,3.99
2022-12-31T19:37:15.273Z,4.24
2022-12-31T19:40:29.580Z,4.20
2022-12-31T19:43:32.027Z,3.93
2022-12-31T19:46:34.414Z,4.10
2022-12-31T19:49:36.781Z,4.07
2022-12-31T19:52:39.147Z,3.81
2022-12-31T19:55:42.400Z,3.77
2022-12-31T19:58:45.465Z,3.77
2022-12-31T20:01:47.982Z,3.81
2022-12-31T20:04:50.647Z,3.77
2022-12-31T20:07:53.057Z,3.88
2022-12-31T20:10:58.839Z,3.85
2022-12-31T20:14:01.257Z,3.63
2022-12-31T20:17:03.760Z,3.59
2022-12-31T20:20:06.978Z,3.42
2022-12-31T20:23:09.909Z,3.56
2022-12-31T20:26:12.781Z,3.51
2022-12-31T20:29:15.235Z,3.50
2022-12-31T20:32:17.992Z,3.32
2022-12-31T20:35:20.340Z,3.39
2022-12-31T20:38:22.720Z,3.26
2022-12-31T20:41:26.281Z,3.46
2022-12-31T20:44:28.758Z,3.42
2022-12-31T20:47:31.113Z,3.14
2022-12-31T20:50:33.638Z,3.07
2022-12-31T20:53:36.056Z,3.15
2022-12-31T20:56:40.329Z,3.20
2022-12-31T20:59:42.757Z,3.16
2022-12-31T21:02:50.931Z,3.31
2022-12-31T21:05:56.466Z,3.25
2022-12-31T21:09:00.674Z,3.45
2022-12-31T21:12:21.963Z,3.51
2022-12-31T21:15:24.348Z,3.36
2022-12-31T21:18:26.989Z,2.99
2022-12-31T21:21:29.385Z,2.96
2022-12-31T21:24:31.753Z,2.91
2022-12-31T21:27:35.877Z,2.89
2022-12-31T21:30:41.779Z,2.94
2022-12-31T21:33:45.957Z,3.05
2022-12-31T21:36:48.309Z,2.86
2022-12-31T21:39:50.963Z,2.74
2022-12-31T21:42:53.341Z,2.86
2022-12-31T21:46:07.154Z,2.81
2022-12-31T21:49:09.578Z,2.89
2022-12-31T21:52:28.536Z,2.80
2022-12-31T21:55:49.059Z,2.89
2022-12-31T21:59:16.917Z,2.82
2022-12-31T22:02:38.246Z,2.57
2022-12-31T22:05:58.932Z,2.71
2022-12-31T22:09:01.488Z,2.62
2022-12-31T22:12:04.088Z,2.51
2022-12-31T22:15:14.445Z,2.51
2022-12-31T22:18:18.736Z,2.77
2022-12-31T22:21:23.725Z,2.88
2022-12-31T22:24:26.088Z,2.76
2022-12-31T22:27:30.040Z,2.81
2022-12-31T22:30:33.439Z,2.63
2022-12-31T22:33:36.056Z,2.77
2022-12-31T22:36:38.458Z,2.83
2022-12-31T22:39:43.369Z,2.79
2022-12-31T22:42:47.161Z,2.77
2022-12-31T22:45:49.547Z,3.14
2022-12-31T22:48:53.681Z,2.95
2022-12-31T22:51:59.845Z,2.90
2022-12-31T22:55:05.804Z,2.58
2022-12-31T22:58:08.177Z,2.37
2022-12-31T23:01:22.395Z,2.22
2022-12-31T23:04:25.009Z,2.36
2022-12-31T23:07:27.378Z,2.21
2022-12-31T23:10:48.254Z,2.09
2022-12-31T23:14:10.025Z,2.20
2022-12-31T23:17:36.178Z,2.22
2022-12-31T23:20:57.368Z,2.21
2022-12-31T23:23:59.990Z,2.39
2022-12-31T23:27:02.762Z,2.55
2022-12-31T23:30:05.948Z,2.37
2022-12-31T23:33:14.289Z,2.54
2022-12-31T23:36:16.671Z,2.71
2022-12-31T23:39:19.753Z,2.55
2022-12-31T23:42:22.182Z,2.72
2022-12-31T23:45:29.563Z,2.66
2022-12-31T23:48:35.333Z,2.98
2022-12-31T23:51:37.965Z,2.88
2022-12-31T23:54:40.476Z,2.82
2022-12-31T23:57:43.526Z,2.83
